createdAt,value
2023-05-19T00:01:10.141Z,97599.78
2023-05-19T00:04:14.216Z,97600.59
2023-05-19T00:07:18.642Z,97600.97
2023-05-19T00:10:27.130Z,97594.63
2023-05-19T00:13:31.307Z,97597.13
2023-05-19T00:16:35.485Z,97595.47
2023-05-19T00:19:39.992Z,97588.81
2023-05-19T00:22:46.203Z,97597.72
2023-05-19T00:25:50.433Z,97591.59
2023-05-19T00:28:54.563Z,97582.50
2023-05-19T00:31:59.572Z,97580.94
2023-05-19T00:35:03.578Z,97579.84
2023-05-19T00:38:09.118Z,97584.78
2023-05-19T00:41:13.225Z,97575.34
2023-05-19T00:44:17.238Z,97576.56
2023-05-19T00:47:21.179Z,97573.72
2023-05-19T00:50:25.278Z,97574.72
2023-05-19T00:53:29.260Z,97578.31
2023-05-19T00:56:33.509Z,97578.88
2023-05-19T00:59:37.429Z,97575.38
2023-05-19T01:02:41.694Z,97579.19
2023-05-19T01:05:45.648Z,97577.16
2023-05-19T01:08:53.541Z,97576.00
2023-05-19T01:11:57.928Z,97572.31
2023-05-19T01:15:10.157Z,97568.41
2023-05-19T01:18:14.442Z,97574.50
2023-05-19T01:21:18.843Z,97567.38
2023-05-19T01:24:23.094Z,97572.22
2023-05-19T01:27:26.921Z,97582.72
2023-05-19T01:30:31.038Z,97578.28
2023-05-19T01:33:35.213Z,97577.84
2023-05-19T01:36:39.383Z,97577.88
2023-05-19T01:39:43.515Z,97574.94
2023-05-19T01:42:48.548Z,97575.09
2023-05-19T01:45:52.991Z,97577.66
2023-05-19T01:48:56.981Z,97581.75
2023-05-19T01:52:00.912Z,97577.63
2023-05-19T01:55:04.807Z,97568.63
2023-05-19T01:58:08.620Z,97579.16
2023-05-19T02:01:12.619Z,97574.38
2023-05-19T02:04:16.764Z,97570.63
2023-05-19T02:07:21.779Z,97575.56
2023-05-19T02:10:25.811Z,97579.34
2023-05-19T02:13:29.461Z,97569.97
2023-05-19T02:16:33.533Z,97567.19
2023-05-19T02:19:37.322Z,97562.97
2023-05-19T02:22:41.140Z,97568.75
2023-05-19T02:25:45.026Z,97563.75
2023-05-19T02:28:48.907Z,97574.41
2023-05-19T02:31:53.157Z,97565.28
2023-05-19T02:34:57.263Z,97570.88
2023-05-19T02:38:01.264Z,97566.84
2023-05-19T02:41:07.058Z,97578.47
2023-05-19T02:44:11.074Z,97572.50
2023-05-19T02:47:15.272Z,97572.13
2023-05-19T02:50:19.322Z,97567.66
2023-05-19T02:53:23.304Z,97567.91
2023-05-19T02:56:27.127Z,97565.53
2023-05-19T02:59:31.228Z,97554.22
2023-05-19T03:02:35.213Z,97553.19
2023-05-19T03:05:39.291Z,97554.75
2023-05-19T03:08:43.209Z,97560.03
2023-05-19T03:11:47.436Z,97567.13
2023-05-19T03:14:51.825Z,97554.41
2023-05-19T03:17:56.275Z,97559.47
2023-05-19T03:21:01.819Z,97554.03
2023-05-19T03:24:05.856Z,97549.94
2023-05-19T03:27:09.959Z,97533.88
2023-05-19T03:30:14.104Z,97541.22
2023-05-19T03:33:18.686Z,97545.22
2023-05-19T03:36:22.616Z,97545.78
2023-05-19T03:39:26.497Z,97535.94
2023-05-19T03:42:30.641Z,97539.44
2023-05-19T03:45:34.915Z,97547.56
2023-05-19T03:48:39.196Z,97552.16
2023-05-19T03:51:43.060Z,97551.22
2023-05-19T03:54:47.027Z,97555.81
2023-05-19T03:57:50.969Z,97556.63
2023-05-19T04:00:55.105Z,97569.22
2023-05-19T04:03:59.077Z,97571.03
2023-05-19T04:07:02.952Z,97564.06
2023-05-19T04:10:07.008Z,97568.19
2023-05-19T04:13:11.272Z,97561.91
2023-05-19T04:16:15.363Z,97571.94
2023-05-19T04:19:24.314Z,97574.56
2023-05-19T04:22:31.163Z,97574.25
2023-05-19T04:25:35.247Z,97581.25
2023-05-19T04:28:39.160Z,97573.81
2023-05-19T04:31:43.365Z,97580.63
2023-05-19T04:34:47.180Z,97574.09
2023-05-19T04:37:51.195Z,97582.25
2023-05-19T04:40:57.097Z,97578.06
2023-05-19T04:44:01.222Z,97585.03
2023-05-19T04:47:11.018Z,97578.94
2023-05-19T04:50:14.734Z,97586.03
2023-05-19T04:53:18.514Z,97588.22
2023-05-19T04:56:22.233Z,97581.34
2023-05-19T04:59:26.338Z,97584.19
2023-05-19T05:02:30.405Z,97590.84
2023-05-19T05:05:34.330Z,97586.63
2023-05-19T05:08:38.412Z,97582.63
2023-05-19T05:11:42.458Z,97584.63
2023-05-19T05:14:46.269Z,97588.06
2023-05-19T05:17:50.031Z,97583.91
2023-05-19T05:20:54.181Z,97581.06
2023-05-19T05:23:58.275Z,97580.69
2023-05-19T05:27:02.271Z,97576.63
2023-05-19T05:30:06.234Z,97573.53
2023-05-19T05:33:10.218Z,97574.56
2023-05-19T05:36:17.645Z,97572.09
2023-05-19T05:39:21.733Z,97574.75
2023-05-19T05:42:27.073Z,97572.91
2023-05-19T05:45:32.796Z,97574.78
2023-05-19T05:48:37.017Z,97571.47
2023-05-19T05:51:42.900Z,97570.81
2023-05-19T05:54:48.523Z,97568.34
2023-05-19T05:57:52.663Z,97576.97
2023-05-19T06:00:56.780Z,97579.38
2023-05-19T06:04:00.907Z,97579.97
2023-05-19T06:07:06.151Z,97583.13
2023-05-19T06:10:10.221Z,97572.28
2023-05-19T06:13:14.524Z,97572.03
2023-05-19T06:16:18.452Z,97578.03
2023-05-19T06:19:28.118Z,97569.59
2023-05-19T06:22:31.969Z,97569.88
2023-05-19T06:25:35.886Z,97571.81
2023-05-19T06:28:39.780Z,97568.09
2023-05-19T06:31:43.964Z,97573.09
2023-05-19T06:34:47.864Z,97566.13
2023-05-19T06:37:51.863Z,97567.97
2023-05-19T06:40:55.672Z,97567.16
2023-05-19T06:43:59.652Z,97571.94
2023-05-19T06:47:03.821Z,97569.88
2023-05-19T06:50:07.909Z,97568.09
2023-05-19T06:53:11.829Z,97567.03
2023-05-19T06:56:18.477Z,97569.75
2023-05-19T06:59:22.670Z,97565.66
2023-05-19T07:02:26.666Z,97559.25
2023-05-19T07:05:30.613Z,97562.88
2023-05-19T07:08:34.504Z,97559.09
2023-05-19T07:11:38.542Z,97566.66
2023-05-19T07:14:42.785Z,97565.25
2023-05-19T07:17:46.747Z,97561.16
2023-05-19T07:20:50.617Z,97570.91
2023-05-19T07:23:54.684Z,97561.53
2023-05-19T07:26:58.673Z,97563.63
2023-05-19T07:30:02.757Z,97570.84
2023-05-19T07:33:07.077Z,97566.53
2023-05-19T07:36:19.282Z,97557.06
2023-05-19T07:39:25.733Z,97553.03
2023-05-19T07:42:29.897Z,97556.59
2023-05-19T07:45:33.979Z,97550.69
2023-05-19T07:48:37.871Z,97548.63
2023-05-19T07:51:41.915Z,97542.22
2023-05-19T07:54:45.950Z,97548.56
2023-05-19T08:01:18.328Z,97548.88
2023-05-19T08:04:25.388Z,97554.41
2023-05-19T08:07:29.587Z,97543.94
2023-05-19T08:10:33.799Z,97541.72
2023-05-19T08:13:37.782Z,97531.69
2023-05-19T08:16:41.913Z,97537.13
2023-05-19T08:19:48.441Z,97537.19
2023-05-19T08:22:52.498Z,97533.53
2023-05-19T08:25:56.706Z,97538.78
2023-05-19T08:29:00.868Z,97529.53
2023-05-19T08:32:04.513Z,97527.00
2023-05-19T08:35:08.605Z,97529.28
2023-05-19T08:38:12.884Z,97526.03
2023-05-19T08:41:16.601Z,97520.22
2023-05-19T08:44:20.517Z,97513.34
2023-05-19T08:47:24.731Z,97511.72
2023-05-19T08:50:28.938Z,97516.50
2023-05-19T08:53:34.599Z,97513.84
2023-05-19T08:56:39.123Z,97517.16
2023-05-19T08:59:43.227Z,97518.41
2023-05-19T09:02:55.475Z,97519.53
2023-05-19T09:06:10.246Z,97514.56
2023-05-19T09:09:17.237Z,97510.13
2023-05-19T09:12:23.301Z,97500.00
2023-05-19T09:15:27.267Z,97499.72
2023-05-19T09:18:31.519Z,97498.09
2023-05-19T09:21:35.499Z,97492.34
2023-05-19T09:24:39.529Z,97484.91
2023-05-19T09:27:43.350Z,97484.06
2023-05-19T09:30:47.394Z,97476.38
2023-05-19T09:33:51.459Z,97477.63
2023-05-19T09:36:55.562Z,97476.72
2023-05-19T09:40:00.370Z,97480.28
2023-05-19T09:43:04.629Z,97485.16
2023-05-19T09:46:08.627Z,97477.19
2023-05-19T09:49:12.980Z,97476.94
2023-05-19T09:52:19.082Z,97479.25
2023-05-19T09:55:23.294Z,97475.25
2023-05-19T09:58:27.209Z,97475.75
2023-05-19T10:01:31.221Z,97467.88
2023-05-19T10:04:35.023Z,97470.66
2023-05-19T10:07:39.166Z,97473.03
2023-05-19T10:10:43.199Z,97472.47
2023-05-19T10:13:47.259Z,97471.75
2023-05-19T10:16:54.211Z,97468.19
2023-05-19T10:19:57.999Z,97473.28
2023-05-19T10:23:01.858Z,97467.34
2023-05-19T10:26:06.034Z,97467.22
2023-05-19T10:29:13.124Z,97467.19
2023-05-19T10:32:17.141Z,97463.69
2023-05-19T10:35:21.092Z,97466.03
2023-05-19T10:38:25.075Z,97465.44
2023-05-19T10:41:29.236Z,97456.47
2023-05-19T10:44:33.235Z,97457.63
2023-05-19T10:47:37.269Z,97453.66
2023-05-19T10:50:41.190Z,97448.94
2023-05-19T10:53:45.679Z,97456.03
2023-05-19T10:56:49.828Z,97452.41
2023-05-19T10:59:53.912Z,97440.44
2023-05-19T11:02:57.968Z,97435.44
2023-05-19T11:06:01.948Z,97439.94
2023-05-19T11:09:05.770Z,97444.34
2023-05-19T11:12:09.768Z,97438.63
2023-05-19T11:15:13.747Z,97430.28
2023-05-19T11:18:17.924Z,97432.88
2023-05-19T11:21:21.672Z,97438.03
2023-05-19T11:24:25.524Z,97424.75
2023-05-19T11:27:29.781Z,97431.34
2023-05-19T11:30:33.700Z,97421.72
2023-05-19T11:33:37.512Z,97422.47
2023-05-19T11:36:41.507Z,97430.94
2023-05-19T11:39:45.261Z,97419.78
2023-05-19T11:42:49.335Z,97414.59
2023-05-19T11:45:53.340Z,97411.72
2023-05-19T11:48:57.088Z,97407.81
2023-05-19T11:52:01.129Z,97419.47
2023-05-19T11:55:07.393Z,97411.59
2023-05-19T11:58:11.407Z,97404.91
2023-05-19T12:01:22.345Z,97401.50
2023-05-19T12:04:26.418Z,97405.66
2023-05-19T12:07:30.448Z,97394.16
2023-05-19T12:10:34.470Z,97390.88
2023-05-19T12:13:38.570Z,97384.56
2023-05-19T12:16:42.830Z,97385.91
2023-05-19T12:19:46.909Z,97387.41
2023-05-19T12:22:50.667Z,97398.16
2023-05-19T12:25:54.544Z,97395.94
2023-05-19T12:28:58.804Z,97387.91
2023-05-19T12:32:03.031Z,97386.03
2023-05-19T12:35:06.898Z,97392.38
2023-05-19T12:38:10.778Z,97389.56
2023-05-19T12:41:17.330Z,97396.19
2023-05-19T12:44:21.343Z,97377.38
2023-05-19T12:47:25.326Z,97382.13
2023-05-19T12:50:29.538Z,97378.72
2023-05-19T12:53:33.308Z,97382.91
2023-05-19T12:56:37.297Z,97384.81
2023-05-19T12:59:41.361Z,97376.84
2023-05-19T13:02:45.585Z,97381.94
2023-05-19T13:05:49.426Z,97362.41
2023-05-19T13:08:53.494Z,97374.72
2023-05-19T13:11:57.573Z,97360.66
2023-05-19T13:15:01.719Z,97360.41
2023-05-19T13:18:05.857Z,97355.31
2023-05-19T13:21:09.856Z,97356.66
2023-05-19T13:24:13.879Z,97349.63
2023-05-19T13:27:18.107Z,97348.06
2023-05-19T13:30:21.964Z,97356.19
2023-05-19T13:33:25.962Z,97355.03
2023-05-19T13:36:29.936Z,97356.28
2023-05-19T13:39:33.645Z,97362.69
2023-05-19T13:42:37.711Z,97358.53
2023-05-19T13:45:41.896Z,97356.69
2023-05-19T13:48:45.802Z,97360.44
2023-05-19T13:51:49.911Z,97357.06
2023-05-19T13:54:53.707Z,97366.41
2023-05-19T13:57:58.643Z,97367.84
2023-05-19T14:01:02.850Z,97357.50
2023-05-19T14:04:07.149Z,97354.03
2023-05-19T14:07:11.346Z,97348.66
2023-05-19T14:10:15.440Z,97349.88
2023-05-19T14:13:32.711Z,97347.97
2023-05-19T14:16:39.109Z,97349.81
2023-05-19T14:19:43.057Z,97352.63
2023-05-19T14:22:47.093Z,97352.84
2023-05-19T14:25:51.321Z,97359.16
2023-05-19T14:28:58.267Z,97356.78
2023-05-19T14:32:02.116Z,97364.28
2023-05-19T14:35:05.794Z,97362.78
2023-05-19T14:38:11.300Z,97359.72
2023-05-19T14:41:15.809Z,97355.72
2023-05-19T14:44:19.719Z,97345.13
2023-05-19T14:47:24.396Z,97346.66
2023-05-19T14:50:29.870Z,97353.72
2023-05-19T14:53:33.850Z,97347.75
2023-05-19T14:56:37.826Z,97346.41
2023-05-19T14:59:41.965Z,97343.19
2023-05-19T15:02:49.140Z,97331.00
2023-05-19T15:05:53.293Z,97337.94
2023-05-19T15:08:57.254Z,97340.44
2023-05-19T15:12:01.377Z,97354.59
2023-05-19T15:15:05.405Z,97344.97
2023-05-19T15:18:09.450Z,97343.53
2023-05-19T15:21:13.374Z,97344.28
2023-05-19T15:24:17.034Z,97348.63
2023-05-19T15:27:21.131Z,97344.44
2023-05-19T15:30:25.281Z,97339.59
2023-05-19T15:33:36.634Z,97336.91
2023-05-19T15:36:46.067Z,97346.22
2023-05-19T15:39:50.286Z,97344.38
2023-05-19T15:42:54.616Z,97343.84
2023-05-19T15:46:03.087Z,97345.03
2023-05-19T15:49:12.649Z,97342.50
2023-05-19T15:52:18.010Z,97345.16
2023-05-19T15:55:23.573Z,97363.63
2023-05-19T15:58:27.877Z,97355.44
2023-05-19T16:01:32.014Z,97355.03
2023-05-19T16:04:36.584Z,97347.56
2023-05-19T16:07:43.275Z,97352.53
2023-05-19T16:10:48.740Z,97339.69
2023-05-19T16:13:53.076Z,97339.78
2023-05-19T16:16:56.917Z,97332.94
2023-05-19T16:20:05.012Z,97338.84
2023-05-19T16:23:09.172Z,97334.97
2023-05-19T16:26:18.172Z,97336.31
2023-05-19T16:29:22.807Z,97340.38
2023-05-19T16:32:53.523Z,97331.94
2023-05-19T16:35:58.392Z,97337.44
2023-05-19T16:39:03.294Z,97328.16
2023-05-19T16:42:07.054Z,97328.47
2023-05-19T16:45:11.180Z,97321.38
2023-05-19T16:48:15.053Z,97323.06
2023-05-19T16:51:19.046Z,97325.97
2023-05-19T16:54:23.023Z,97330.22
2023-05-19T16:57:26.805Z,97315.47
2023-05-19T17:00:31.069Z,97320.25
2023-05-19T17:03:34.899Z,97330.25
2023-05-19T17:06:38.811Z,97319.50
2023-05-19T17:09:42.814Z,97310.06
2023-05-19T17:12:46.976Z,97322.09
2023-05-19T17:15:51.165Z,97314.22
2023-05-19T17:18:55.033Z,97321.03
2023-05-19T17:21:58.930Z,97329.19
2023-05-19T17:25:03.013Z,97321.91
2023-05-19T17:28:07.085Z,97329.91
2023-05-19T17:31:11.010Z,97338.69
2023-05-19T17:34:17.050Z,97350.66
2023-05-19T17:37:21.270Z,97328.31
2023-05-19T17:40:24.939Z,97328.44
2023-05-19T17:43:28.839Z,97324.94
2023-05-19T17:46:32.711Z,97326.03
2023-05-19T17:49:36.459Z,97320.09
2023-05-19T17:52:40.548Z,97330.69
2023-05-19T17:55:44.777Z,97329.97
2023-05-19T17:58:48.955Z,97325.38
2023-05-19T18:01:53.196Z,97332.34
2023-05-19T18:04:57.126Z,97330.53
2023-05-19T18:08:01.214Z,97342.25
2023-05-19T18:11:05.317Z,97337.38
2023-05-19T18:14:09.372Z,97339.41
2023-05-19T18:17:13.440Z,97336.19
2023-05-19T18:20:17.458Z,97334.78
2023-05-19T18:23:22.497Z,97330.28
2023-05-19T18:26:26.465Z,97328.41
2023-05-19T18:29:30.462Z,97329.66
2023-05-19T18:32:34.404Z,97327.88
2023-05-19T18:35:38.387Z,97330.28
2023-05-19T18:38:42.541Z,97326.25
2023-05-19T18:41:46.576Z,97328.84
2023-05-19T18:44:53.086Z,97324.41
2023-05-19T18:51:38.312Z,97331.06
2023-05-19T18:54:42.552Z,97327.88
2023-05-19T18:57:46.606Z,97330.19
2023-05-19T19:00:50.826Z,97322.19
2023-05-19T19:03:54.879Z,97325.34
2023-05-19T19:06:58.647Z,97322.56
2023-05-19T19:10:02.593Z,97324.69
2023-05-19T19:13:06.700Z,97326.81
2023-05-19T19:16:10.512Z,97323.38
2023-05-19T19:19:14.652Z,97327.88
2023-05-19T19:22:18.890Z,97336.66
2023-05-19T19:25:23.699Z,97337.59
2023-05-19T19:28:28.477Z,97337.97
2023-05-19T19:31:33.791Z,97348.53
2023-05-19T19:34:37.995Z,97350.94
2023-05-19T19:37:42.066Z,97355.59
2023-05-19T19:40:46.194Z,97344.72
2023-05-19T19:43:50.731Z,97337.09
2023-05-19T19:46:55.290Z,97349.41
2023-05-19T19:49:59.293Z,97345.41
2023-05-19T19:53:20.938Z,97352.25
2023-05-19T19:56:25.132Z,97348.00
2023-05-19T19:59:40.124Z,97341.94
2023-05-19T20:03:03.075Z,97345.69
2023-05-19T20:06:08.708Z,97334.50
2023-05-19T20:12:44.817Z,97348.84
2023-05-19T20:15:49.443Z,97341.59
2023-05-19T20:18:56.816Z,97341.41
2023-05-19T20:22:00.604Z,97333.69
2023-05-19T20:25:04.543Z,97347.00
2023-05-19T20:28:11.098Z,97337.72
2023-05-19T20:31:17.480Z,97341.94
2023-05-19T20:34:21.782Z,97342.75
2023-05-19T20:37:26.318Z,97337.72
2023-05-19T20:40:32.083Z,97329.19
2023-05-19T20:43:37.414Z,97337.94
2023-05-19T20:46:43.443Z,97334.53
2023-05-19T20:49:47.480Z,97359.09
2023-05-19T20:52:55.294Z,97339.25
2023-05-19T20:55:59.489Z,97346.22
2023-05-19T20:59:05.611Z,97337.09
2023-05-19T21:02:09.635Z,97335.81
2023-05-19T21:05:13.680Z,97341.94
2023-05-19T21:08:17.710Z,97341.63
2023-05-19T21:11:27.019Z,97351.19
2023-05-19T21:14:32.359Z,97336.88
2023-05-19T21:17:37.998Z,97340.13
2023-05-19T21:20:47.161Z,97341.81
2023-05-19T21:23:51.112Z,97336.84
2023-05-19T21:26:55.200Z,97330.63
2023-05-19T21:29:59.542Z,97329.84
2023-05-19T21:33:03.492Z,97335.16
2023-05-19T21:36:07.308Z,97325.75
2023-05-19T21:39:11.424Z,97329.22
2023-05-19T21:42:15.379Z,97321.50
2023-05-19T21:45:19.260Z,97315.41
2023-05-19T21:48:23.226Z,97315.31
2023-05-19T21:51:28.587Z,97317.47
2023-05-19T21:54:32.772Z,97318.34
2023-05-19T21:57:36.761Z,97322.13
2023-05-19T22:00:40.760Z,97309.38
2023-05-19T22:03:44.882Z,97311.66
2023-05-19T22:06:48.959Z,97304.28
2023-05-19T22:09:53.129Z,97299.25
2023-05-19T22:12:56.975Z,97292.53
2023-05-19T22:16:00.657Z,97298.16
2023-05-19T22:19:04.654Z,97302.47
2023-05-19T22:22:14.076Z,97309.38
2023-05-19T22:25:18.504Z,97303.25
2023-05-19T22:28:22.669Z,97309.94
2023-05-19T22:31:26.778Z,97307.03
2023-05-19T22:34:30.663Z,97311.03
2023-05-19T22:37:34.800Z,97308.84
2023-05-19T22:40:38.946Z,97302.13
2023-05-19T22:43:47.434Z,97306.03
2023-05-19T22:46:51.695Z,97314.09
2023-05-19T22:49:57.119Z,97303.94
2023-05-19T22:53:01.015Z,97314.88
2023-05-19T22:56:05.026Z,97305.31
2023-05-19T22:59:09.085Z,97305.00
2023-05-19T23:02:13.381Z,97295.75
2023-05-19T23:05:19.369Z,97304.50
2023-05-19T23:08:23.235Z,97295.19
2023-05-19T23:11:27.425Z,97291.22
2023-05-19T23:14:31.379Z,97292.53
2023-05-19T23:17:35.729Z,97295.16
2023-05-19T23:20:39.558Z,97291.53
2023-05-19T23:23:43.466Z,97291.66
2023-05-19T23:26:47.592Z,97297.09
2023-05-19T23:29:51.672Z,97291.13
2023-05-19T23:32:57.114Z,97288.53
2023-05-19T23:36:01.259Z,97288.44
2023-05-19T23:39:05.183Z,97292.56
2023-05-19T23:42:09.125Z,97286.78
2023-05-19T23:45:13.244Z,97283.41
2023-05-19T23:48:17.331Z,97289.22
2023-05-19T23:51:21.206Z,97287.66
2023-05-19T23:54:25.311Z,97287.31
2023-05-19T23:57:29.228Z,97292.41
